This is the latest recevied weather packets stored in our database for station/object KI7JYE. If no packets are shown the sender has not sent any weather packets the latest 10 day(s).
| Time | Temp. | Humidity | Pressure | Rain* | Wind** | Luminosity | Snow |
|---|---|---|---|---|---|---|---|
| 1777247520 | 20.56° C | 38% | 1008.2 hPa | 0 mm | - | 107 W/m² | - |
| 1777247218 | 21.67° C | 37% | 1008.1 hPa | 0 mm | - | 140 W/m² | - |
| 1777246916 | 21.11° C | 38% | 1008.5 hPa | 0 mm | - | 428 W/m² | - |
| 1777246611 | 21.11° C | 39% | 1008.4 hPa | 0 mm | - | 137 W/m² | - |
| 1777246308 | 22.78° C | 36% | 1008.3 hPa | 0 mm | - | 136 W/m² | - |
| 1777246006 | 22.22° C | 35% | 1008.3 hPa | 0 mm | - | 448 W/m² | - |
| 1777245704 | 21.67° C | 36% | 1008.3 hPa | 0 mm | - | 486 W/m² | - |
| 1777245401 | 22.78° C | 35% | 1008.6 hPa | 0 mm | - | 154 W/m² | - |
| 1777245095 | 21.67° C | 36% | 1008.6 hPa | 0 mm | - | 509 W/m² | - |
| 1777244792 | 21.67° C | 35% | 1008.3 hPa | 0 mm | - | 149 W/m² | - |
| 1777244488 | 22.22° C | 34% | 1008.5 hPa | 0 mm | - | 546 W/m² | - |
| 1777244184 | 20.56° C | 36% | 1008.3 hPa | 0 mm | - | 532 W/m² | - |
| 1777243884 | 20° C | 40% | 1008.6 hPa | 0 mm | - | 129 W/m² | - |
| 1777243580 | 20.56° C | 39% | 1008.5 hPa | 0 mm | - | 109 W/m² | - |
| 1777243275 | 20.56° C | 38% | 1008.5 hPa | 0 mm | - | 110 W/m² | - |
| 1777242971 | 21.67° C | 36% | 1008.6 hPa | 0 mm | - | 96 W/m² | - |
| 1777242669 | 22.78° C | 34% | 1008.7 hPa | 0 mm | - | 547 W/m² | - |
| 1777242364 | 22.78° C | 36% | 1008.5 hPa | 0 mm | - | 547 W/m² | - |
| 1777242062 | 21.67° C | 37% | 1008.6 hPa | 0 mm | - | 541 W/m² | - |
| 1777241759 | 21.67° C | 36% | 1008.5 hPa | 0 mm | - | 559 W/m² | - |
| 1777241456 | 21.67° C | 36% | 1008.4 hPa | 0 mm | - | 564 W/m² | - |
| 1777241154 | 22.22° C | 37% | 1008.7 hPa | 0 mm | - | 573 W/m² | - |
| 1777240851 | 21.67° C | 35% | 1008.8 hPa | 0 mm | - | 585 W/m² | - |
| 1777240549 | 22.22° C | 35% | 1008.5 hPa | 0 mm | - | 584 W/m² | - |
| 1777240246 | 20.56° C | 40% | 1008.5 hPa | 0 mm | - | 584 W/m² | - |
* Rain latest hour (hover to see other rain measurements)
** Current wind speed in m/s (hover to see current wind gust speed)